createdAt,value
2023-03-15T00:04:25.076Z,6.93
2023-03-15T00:09:28.213Z,6.68
2023-03-15T00:14:31.736Z,7.00
2023-03-15T00:19:34.026Z,6.88
2023-03-15T00:24:36.277Z,6.65
2023-03-15T00:29:38.465Z,6.65
2023-03-15T00:34:40.747Z,7.07
2023-03-15T00:39:45.564Z,6.88
2023-03-15T00:44:47.812Z,6.85
2023-03-15T00:49:50.878Z,7.15
2023-03-15T00:54:54.429Z,7.00
2023-03-15T00:59:57.559Z,6.90
2023-03-15T01:05:00.229Z,6.40
2023-03-15T01:10:05.124Z,7.13
2023-03-15T01:15:16.828Z,6.82
2023-03-15T01:20:19.523Z,7.05
2023-03-15T01:25:21.755Z,6.93
2023-03-15T01:30:23.960Z,7.38
2023-03-15T01:35:26.314Z,6.63
2023-03-15T01:40:28.847Z,6.70
2023-03-15T01:51:19.696Z,7.13
2023-03-15T01:56:24.007Z,7.72
2023-03-15T02:01:26.982Z,7.07
2023-03-15T02:06:34.969Z,7.10
2023-03-15T02:11:37.411Z,7.03
2023-03-15T02:16:40.210Z,6.85
2023-03-15T02:26:57.330Z,7.68
2023-03-15T02:32:04.657Z,7.07
2023-03-15T02:37:07.033Z,7.95
2023-03-15T02:42:09.579Z,7.10
2023-03-15T02:47:19.004Z,7.15
2023-03-15T02:52:22.639Z,6.07
2023-03-15T02:57:24.952Z,7.75
2023-03-15T03:02:30.022Z,7.40
2023-03-15T03:07:33.537Z,7.20
2023-03-15T03:12:39.909Z,7.15
2023-03-15T03:17:43.938Z,6.95
2023-03-15T03:22:46.242Z,6.45
2023-03-15T03:27:48.763Z,6.97
2023-03-15T03:32:51.744Z,7.07
2023-03-15T03:37:55.882Z,7.57
2023-03-15T03:43:04.023Z,7.15
2023-03-15T03:48:06.691Z,7.30
2023-03-15T03:53:10.366Z,7.10
2023-03-15T03:58:12.915Z,7.45
2023-03-15T04:03:27.216Z,7.72
2023-03-15T04:08:37.065Z,6.78
2023-03-15T04:13:39.670Z,8.00
2023-03-15T04:18:42.321Z,8.18
2023-03-15T04:23:44.892Z,6.63
2023-03-15T04:28:59.178Z,7.68
2023-03-15T04:34:13.492Z,7.72
2023-03-15T04:39:35.700Z,7.35
2023-03-15T04:44:49.852Z,7.22
2023-03-15T04:50:13.435Z,7.93
2023-03-15T04:55:25.149Z,7.75
2023-03-15T05:00:47.530Z,7.50
2023-03-15T05:06:09.747Z,7.88
2023-03-15T05:11:24.993Z,7.47
2023-03-15T05:16:36.758Z,7.80
2023-03-15T05:21:54.773Z,8.25
2023-03-15T05:27:13.716Z,8.80
2023-03-15T05:32:34.835Z,22.50
2023-03-15T05:37:51.471Z,7.40
2023-03-15T05:43:09.241Z,7.75
2023-03-15T05:48:32.462Z,7.65
2023-03-15T05:53:54.974Z,8.55
2023-03-15T05:59:17.139Z,7.38
2023-03-15T06:04:33.432Z,7.28
2023-03-15T06:09:36.811Z,8.23
2023-03-15T06:14:39.904Z,7.22
2023-03-15T06:19:43.907Z,7.53
2023-03-15T06:24:46.432Z,9.15
2023-03-15T06:29:50.536Z,7.40
2023-03-15T06:34:55.654Z,7.15
2023-03-15T06:39:57.995Z,6.40
2023-03-15T06:45:03.570Z,11.18
2023-03-15T06:50:06.772Z,8.38
2023-03-15T06:55:10.304Z,8.10
2023-03-15T07:00:14.804Z,7.03
2023-03-15T07:05:17.176Z,6.85
2023-03-15T07:10:20.283Z,8.18
2023-03-15T07:15:22.586Z,10.50
2023-03-15T07:20:24.855Z,7.35
2023-03-15T07:25:27.203Z,8.73
2023-03-15T07:30:29.729Z,7.75
2023-03-15T07:35:32.233Z,7.85
2023-03-15T07:40:34.457Z,8.02
2023-03-15T07:45:36.968Z,8.10
2023-03-15T07:50:39.826Z,9.50
2023-03-15T07:55:42.105Z,8.38
2023-03-15T08:00:44.387Z,8.38
2023-03-15T08:05:46.686Z,8.32
2023-03-15T08:10:49.066Z,9.45
2023-03-15T08:15:52.038Z,8.52
2023-03-15T08:20:54.417Z,9.30
2023-03-15T08:25:57.443Z,8.75
2023-03-15T08:30:59.679Z,8.70
2023-03-15T08:36:02.140Z,9.30
2023-03-15T08:41:04.536Z,9.20
2023-03-15T08:46:06.899Z,9.90
2023-03-15T08:51:09.907Z,10.23
2023-03-15T08:56:12.216Z,9.32
2023-03-15T09:01:16.392Z,10.93
2023-03-15T09:06:18.648Z,9.95
2023-03-15T09:11:22.061Z,11.05
2023-03-15T09:16:24.375Z,11.27
2023-03-15T09:21:27.775Z,11.60
2023-03-15T09:26:30.043Z,11.93
2023-03-15T09:31:32.496Z,15.52
2023-03-15T09:36:34.738Z,18.05
2023-03-15T09:41:58.958Z,16.10
2023-03-15T09:52:36.910Z,16.33
2023-03-15T10:03:00.742Z,18.05
2023-03-15T10:08:03.641Z,17.02
2023-03-15T10:13:22.258Z,16.92
2023-03-15T10:18:51.997Z,19.50
2023-03-15T10:23:55.203Z,19.38
2023-03-15T10:28:58.072Z,20.63
2023-03-15T10:34:00.743Z,19.67
2023-03-15T10:39:05.301Z,20.25
2023-03-15T10:44:14.047Z,19.10
2023-03-15T10:49:16.623Z,22.40
2023-03-15T10:54:22.979Z,20.88
2023-03-15T10:59:27.525Z,20.25
2023-03-15T11:04:33.789Z,19.17
2023-03-15T11:09:52.207Z,18.23
2023-03-15T11:15:00.835Z,19.52
2023-03-15T11:20:26.127Z,18.83
2023-03-15T11:25:31.859Z,18.17
2023-03-15T11:30:34.420Z,18.77
2023-03-15T11:35:48.318Z,17.67
2023-03-15T11:40:56.845Z,18.73
2023-03-15T11:46:05.123Z,18.70
2023-03-15T11:51:16.224Z,19.85
2023-03-15T12:01:31.439Z,18.10
2023-03-15T12:06:37.716Z,18.92
2023-03-15T12:11:41.987Z,17.95
2023-03-15T12:16:46.764Z,20.45
2023-03-15T12:21:56.851Z,19.42
2023-03-15T12:27:20.504Z,17.20
2023-03-15T12:32:23.212Z,19.23
2023-03-15T12:37:48.209Z,18.42
2023-03-15T12:58:36.784Z,21.40
2023-03-15T13:03:39.278Z,21.25
2023-03-15T13:19:23.224Z,18.70
2023-03-15T13:24:39.597Z,21.52
2023-03-15T13:29:41.987Z,20.40
2023-03-15T13:34:47.093Z,19.33
2023-03-15T13:50:19.705Z,17.25
2023-03-15T13:55:23.341Z,18.30
2023-03-15T14:00:27.020Z,17.10
2023-03-15T14:05:33.135Z,15.43
2023-03-15T14:10:38.855Z,17.45
2023-03-15T14:15:44.384Z,16.67
2023-03-15T14:20:53.691Z,15.98
2023-03-15T14:26:03.430Z,17.65
2023-03-15T14:31:06.363Z,16.80
2023-03-15T14:36:23.750Z,18.25
2023-03-15T14:46:37.676Z,20.73
2023-03-15T14:51:40.014Z,18.38
